^^
Station Historical Data
Daily Summary for Nil La, TWC- Units:  Both    English   Metric
« Previous Day
Next Day »
Daily Weekly Monthly Yearly Custom
  High: Low: Average:
Temperature: TemperatureC °F /  -17.8 °C 6.2 °F /  -14.3 °C 8.4 °F /  -13.1 °C
Dew Point: DewpointC °F /  -17.8 °C 3.7 °F /  -15.7 °C 4.7 °F /  -15.2 °C
Humidity: Humidity% 66% 76%
Wind Speed: WindSpeedKMHmph /  0km/h - 0mph /  0km/h
Wind Gust: WindSpeedGustKMHmph /  0km/h - -
Wind- - North
Pressure: PressurehPa in /  0 hPa 1026.0 in /  34740.4 hPa -
Precipitation: 0.0 in /  0 mm    
Historical Graphs
 
 
Tabular Data for Nil La, TWC-
Time Temperature Dew Point Pressure Wind Wind Speed Wind Gust Humidity Rainfall Rate (Hourly) solar Conditions
TemperatureC °F /  -17.8 °C DewpointC °F /  -17.8 °C PressurehPain /  0hPa Calm     Humidity% HourlyPrecipMMin /  0mm SoftwareType W/m2 Conditions
00:03 11.4 °F /  -11.4 °C 5.3 °F /  -14.8 °C 1026.0in /  34740.4hPa Calm     66% 0.0in /  0mm WeatherDisplay:10.37 W/m2 CLR
00:08 11.3 °F /  -11.5 °C 5.2 °F /  -14.9 °C 1026.0in /  34740.4hPa Calm     66% 0.0in /  0mm WeatherDisplay:10.37 W/m2 CLR
00:13 11.2 °F /  -11.6 °C 5.3 °F /  -14.8 °C 1026.0in /  34740.4hPa Calm     67% 0.0in /  0mm WeatherDisplay:10.37 W/m2 CLR
00:18 11.1 °F /  -11.6 °C 5.4 °F /  -14.8 °C 1026.0in /  34740.4hPa Calm     68% 0.0in /  0mm WeatherDisplay:10.37 W/m2 CLR
00:24 11.0 °F /  -11.7 °C 5.5 °F /  -14.7 °C 1026.0in /  34740.4hPa Calm     69% 0.0in /  0mm WeatherDisplay:10.37 W/m2 CLR
00:29 10.8 °F /  -11.8 °C 5.6 °F /  -14.7 °C 1026.0in /  34740.4hPa Calm     70% 0.0in /  0mm WeatherDisplay:10.37 W/m2 CLR
00:34 10.7 °F /  -11.8 °C 5.7 °F /  -14.6 °C 1026.0in /  34740.4hPa Calm     71% 0.0in /  0mm WeatherDisplay:10.37 W/m2 CLR
00:39 10.6 °F /  -11.9 °C 5.6 °F /  -14.7 °C 1026.0in /  34740.4hPa Calm     71% 0.0in /  0mm WeatherDisplay:10.37 W/m2 CLR
00:44 10.4 °F /  -12 °C 5.4 °F /  -14.8 °C 1026.0in /  34740.4hPa Calm     71% 0.0in /  0mm WeatherDisplay:10.37 W/m2 CLR
00:49 10.3 °F /  -12.1 °C 5.3 °F /  -14.8 °C 1026.0in /  34740.4hPa Calm     71% 0.0in /  0mm WeatherDisplay:10.37 W/m2 CLR
00:54 10.2 °F /  -12.1 °C 5.3 °F /  -14.8 °C 1026.0in /  34740.4hPa Calm     72% 0.0in /  0mm WeatherDisplay:10.37 W/m2 CLR
00:59 10.0 °F /  -12.2 °C 5.2 °F /  -14.9 °C 1026.0in /  34740.4hPa Calm     72% 0.0in /  0mm WeatherDisplay:10.37 W/m2 CLR
01:04 9.9 °F /  -12.3 °C 5.1 °F /  -14.9 °C 1026.0in /  34740.4hPa Calm     72% 0.0in /  0mm WeatherDisplay:10.37 W/m2 CLR
01:09 9.8 °F /  -12.3 °C 5.4 °F /  -14.8 °C 1026.3in /  34750.5hPa Calm     74% 0.0in /  0mm WeatherDisplay:10.37 W/m2 CLR
01:14 9.7 °F /  -12.4 °C 5.3 °F /  -14.8 °C 1026.3in /  34750.5hPa Calm     74% 0.0in /  0mm WeatherDisplay:10.37 W/m2 CLR
01:19 9.4 °F /  -12.6 °C 5.1 °F /  -14.9 °C 1026.3in /  34750.5hPa Calm     74% 0.0in /  0mm WeatherDisplay:10.37 W/m2 CLR
01:24 9.2 °F /  -12.7 °C 4.8 °F /  -15.1 °C 1026.3in /  34750.5hPa Calm     74% 0.0in /  0mm WeatherDisplay:10.37 W/m2 CLR
01:30 9.2 °F /  -12.7 °C 4.9 °F /  -15.1 °C 1026.3in /  34750.5hPa Calm     75% 0.0in /  0mm WeatherDisplay:10.37 W/m2 CLR
01:35 9.1 °F /  -12.7 °C 4.8 °F /  -15.1 °C 1026.3in /  34750.5hPa Calm     75% 0.0in /  0mm WeatherDisplay:10.37 W/m2 CLR
01:40 8.9 °F /  -12.8 °C 4.9 °F /  -15.1 °C 1026.3in /  34750.5hPa Calm     76% 0.0in /  0mm WeatherDisplay:10.37 W/m2 CLR
01:45 8.8 °F /  -12.9 °C 4.8 °F /  -15.1 °C 1026.3in /  34750.5hPa Calm     76% 0.0in /  0mm WeatherDisplay:10.37 W/m2 CLR
01:50 8.8 °F /  -12.9 °C 4.9 °F /  -15.1 °C 1026.3in /  34750.5hPa Calm     77% 0.0in /  0mm WeatherDisplay:10.37 W/m2 CLR
01:55 8.8 °F /  -12.9 °C 5.2 °F /  -14.9 °C 1026.3in /  34750.5hPa Calm     78% 0.0in /  0mm WeatherDisplay:10.37 W/m2 CLR
02:00 8.7 °F /  -12.9 °C 5.1 °F /  -14.9 °C 1026.3in /  34750.5hPa Calm     78% 0.0in /  0mm WeatherDisplay:10.37 W/m2 CLR
02:05 8.5 °F /  -13.1 °C 4.9 °F /  -15.1 °C 1026.3in /  34750.5hPa Calm     78% 0.0in /  0mm WeatherDisplay:10.37 W/m2 CLR
02:10 8.4 °F /  -13.1 °C 5.0 °F /  -15 °C 1026.3in /  34750.5hPa Calm     79% 0.0in /  0mm WeatherDisplay:10.37 W/m2 CLR
02:15 8.4 °F /  -13.1 °C 4.9 °F /  -15.1 °C 1026.3in /  34750.5hPa Calm     79% 0.0in /  0mm WeatherDisplay:10.37 W/m2 CLR
02:20 8.3 °F /  -13.2 °C 4.9 °F /  -15.1 °C 1026.3in /  34750.5hPa Calm     79% 0.0in /  0mm WeatherDisplay:10.37 W/m2 CLR
02:25 8.3 °F /  -13.2 °C 4.8 °F /  -15.1 °C 1026.3in /  34750.5hPa Calm     79% 0.0in /  0mm WeatherDisplay:10.37 W/m2 CLR
02:30 8.2 °F /  -13.2 °C 4.8 °F /  -15.1 °C 1026.3in /  34750.5hPa Calm     79% 0.0in /  0mm WeatherDisplay:10.37 W/m2 CLR
02:35 8.2 °F /  -13.2 °C 4.9 °F /  -15.1 °C 1026.3in /  34750.5hPa Calm     80% 0.0in /  0mm WeatherDisplay:10.37 W/m2 CLR
02:41 8.1 °F /  -13.3 °C 4.9 °F /  -15.1 °C 1026.3in /  34750.5hPa Calm     80% 0.0in /  0mm WeatherDisplay:10.37 W/m2 CLR
02:46 8.1 °F /  -13.3 °C 4.8 °F /  -15.1 °C 1026.3in /  34750.5hPa Calm     80% 0.0in /  0mm WeatherDisplay:10.37 W/m2 CLR
02:51 8.0 °F /  -13.3 °C 4.8 °F /  -15.1 °C 1026.3in /  34750.5hPa Calm     80% 0.0in /  0mm WeatherDisplay:10.37 W/m2 CLR
02:56 7.9 °F /  -13.4 °C 4.8 °F /  -15.1 °C 1026.3in /  34750.5hPa Calm     81% 0.0in /  0mm WeatherDisplay:10.37 W/m2 CLR
03:01 7.7 °F /  -13.5 °C 4.4 °F /  -15.3 °C 1026.3in /  34750.5hPa Calm     80% 0.0in /  0mm WeatherDisplay:10.37 W/m2 CLR
03:06 7.5 °F /  -13.6 °C 4.4 °F /  -15.3 °C 1026.3in /  34750.5hPa Calm     81% 0.0in /  0mm WeatherDisplay:10.37 W/m2 CLR
03:11 7.4 °F /  -13.7 °C 4.3 °F /  -15.4 °C 1026.3in /  34750.5hPa Calm     81% 0.0in /  0mm WeatherDisplay:10.37 W/m2 CLR
03:16 7.3 °F /  -13.7 °C 4.4 °F /  -15.3 °C 1026.3in /  34750.5hPa Calm     82% 0.0in /  0mm WeatherDisplay:10.37 W/m2 CLR
03:21 7.3 °F /  -13.7 °C 4.4 °F /  -15.3 °C 1026.3in /  34750.5hPa Calm     82% 0.0in /  0mm WeatherDisplay:10.37 W/m2 CLR
03:26 7.2 °F /  -13.8 °C 4.4 °F /  -15.3 °C 1026.3in /  34750.5hPa Calm     83% 0.0in /  0mm WeatherDisplay:10.37 W/m2 CLR
03:31 7.1 °F /  -13.8 °C 4.2 °F /  -15.4 °C 1026.3in /  34750.5hPa Calm     82% 0.0in /  0mm WeatherDisplay:10.37 W/m2 CLR
03:36 6.9 °F /  -13.9 °C 4.3 °F /  -15.4 °C 1026.3in /  34750.5hPa Calm     83% 0.0in /  0mm WeatherDisplay:10.37 W/m2 CLR
03:41 6.9 °F /  -13.9 °C 4.2 °F /  -15.4 °C 1026.3in /  34750.5hPa Calm     83% 0.0in /  0mm WeatherDisplay:10.37 W/m2 CLR
03:47 6.8 °F /  -14 °C 4.1 °F /  -15.5 °C 1026.3in /  34750.5hPa Calm     83% 0.0in /  0mm WeatherDisplay:10.37 W/m2 CLR
03:52 6.7 °F /  -14.1 °C 4.2 °F /  -15.4 °C 1026.6in /  34760.7hPa Calm     84% 0.0in /  0mm WeatherDisplay:10.37 W/m2 CLR
03:57 6.7 °F /  -14.1 °C 4.2 °F /  -15.4 °C 1026.6in /  34760.7hPa Calm     84% 0.0in /  0mm WeatherDisplay:10.37 W/m2 CLR
04:02 6.7 °F /  -14.1 °C 4.2 °F /  -15.4 °C 1026.6in /  34760.7hPa Calm     84% 0.0in /  0mm WeatherDisplay:10.37 W/m2 CLR
04:07 6.6 °F /  -14.1 °C 4.1 °F /  -15.5 °C 1026.6in /  34760.7hPa Calm     84% 0.0in /  0mm WeatherDisplay:10.37 W/m2 CLR
04:12 6.4 °F /  -14.2 °C 3.9 °F /  -15.6 °C 1026.6in /  34760.7hPa Calm     84% 0.0in /  0mm WeatherDisplay:10.37 W/m2 CLR
04:17 6.3 °F /  -14.3 °C 3.8 °F /  -15.7 °C 1026.6in /  34760.7hPa Calm     84% 0.0in /  0mm WeatherDisplay:10.37 W/m2 CLR
04:22 6.2 °F /  -14.3 °C 3.7 °F /  -15.7 °C 1026.6in /  34760.7hPa Calm     84% 0.0in /  0mm WeatherDisplay:10.37 W/m2 CLR
Tuulensuunkaari, Veikkola, Suomi
Compliments of Weather Underground - 1.75 mb